Royer Lake, Indiana
Current Conditions -  °F | °C
As of 1:35 PM on Monday 22 Dec 2014 (Local Time) from KIRS Reporting Station
Broken Clouds Broken Clouds  
Wind Chill: -1°   Ceiling: 10000
Heat Index:   Visibility: 10mi
Dew Point: -1°   Wind: 7mph
Humidity: 81%   Direction: 110°ESE
Pressure: 29.87"   Gusts: NA
Location:  41.6561°N, 85.3683°W
Report Text: KIRS 221835Z AUTO 11006KT 10SM SCT055 BKN100 02/M01 A2987 RMK AO2
Loading
Personal Weather Stations






























Interactive Weather Map New forecast layout! Learn more

10-Day Weather Forecast

Advertisements
Track Severe Weather on mobile